Time;durP1;ratioP1;P1;durP2;ratioP2;P2;SDS_P1;SDS_P2;PMS_P1;PMS_P2;Temp;Humidity;BMP_temperature;BMP_pressure;BME280_temperature;BME280_humidity;BME280_pressure;Samples;Min_cycle;Max_cycle;Signal;HPM_P1;HPM_P2
2022/05/26 00:01:37;;;;;;;28.08;7.13;;;;;;;;;;4983324;28;20274;-70
2022/05/26 00:04:03;;;;;;;32.55;7.63;;;;;;;;;;4986525;28;20022;-70
2022/05/26 00:06:29;;;;;;;33.00;6.88;;;;;;;;;;4999399;28;20237;-71
2022/05/26 00:08:55;;;;;;;34.17;7.35;;;;;;;;;;4969862;28;20049;-70
2022/05/26 00:11:22;;;;;;;29.40;6.10;;;;;;;;;;4980475;28;20453;-71
2022/05/26 00:13:47;;;;;;;33.35;6.93;;;;;;;;;;4985120;28;20057;-73
2022/05/26 00:16:13;;;;;;;32.28;7.03;;;;;;;;;;4982004;28;20482;-71
2022/05/26 00:18:38;;;;;;;25.40;5.90;;;;;;;;;;4985614;28;20022;-70
2022/05/26 00:21:04;;;;;;;28.70;6.38;;;;;;;;;;5003360;28;20040;-71
2022/05/26 00:23:29;;;;;;;28.27;7.05;;;;;;;;;;5000841;28;20554;-71
2022/05/26 00:25:55;;;;;;;33.35;6.75;;;;;;;;;;4997990;28;20463;-70
2022/05/26 00:28:20;;;;;;;28.65;6.60;;;;;;;;;;4997981;28;20071;-70
2022/05/26 00:30:45;;;;;;;29.00;6.22;;;;;;;;;;5002264;28;20037;-70
2022/05/26 00:33:13;;;;;;;29.60;7.03;;;;;;;;;;4983942;28;20020;-70
2022/05/26 00:35:40;;;;;;;27.05;6.60;;;;;;;;;;4968805;28;20131;-70
2022/05/26 00:38:07;;;;;;;30.85;6.13;;;;;;;;;;5003078;28;20096;-71
2022/05/26 00:40:32;;;;;;;28.23;6.72;;;;;;;;;;4979648;28;20199;-71
2022/05/26 00:42:58;;;;;;;27.90;6.93;;;;;;;;;;5001804;28;20050;-70
2022/05/26 00:45:24;;;;;;;37.35;7.10;;;;;;;;;;4997281;28;20431;-70
2022/05/26 00:47:49;;;;;;;29.20;6.38;;;;;;;;;;5002386;28;20065;-70
2022/05/26 00:50:18;;;;;;;29.30;6.25;;;;;;;;;;4984120;28;20041;-70
2022/05/26 00:52:54;;;;;;;22.52;5.95;;;;;;;;;;5004632;28;20020;-70
2022/05/26 00:55:24;;;;;;;26.02;6.55;;;;;;;;;;4998331;28;20056;-70
2022/05/26 00:57:57;;;;;;;30.10;7.32;;;;;;;;;;5002884;28;20076;-70
2022/05/26 01:00:25;;;;;;;28.60;6.00;;;;;;;;;;4982020;28;20025;-70
2022/05/26 01:03:08;;;;;;;22.30;5.82;;;;;;;;;;4985115;28;20022;-71
2022/05/26 01:05:37;;;;;;;27.83;6.80;;;;;;;;;;4998873;28;20487;-70
2022/05/26 01:08:06;;;;;;;27.17;5.90;;;;;;;;;;4982782;28;20088;-70
2022/05/26 01:10:31;;;;;;;26.45;6.00;;;;;;;;;;4996795;28;20076;-71
2022/05/26 01:12:56;;;;;;;33.67;6.28;;;;;;;;;;4967182;28;20157;-71
2022/05/26 01:15:22;;;;;;;22.02;5.82;;;;;;;;;;4982157;28;20030;-71
2022/05/26 01:18:17;;;;;;;30.35;5.85;;;;;;;;;;5003819;28;20084;-71
2022/05/26 01:20:48;;;;;;;20.63;5.38;;;;;;;;;;4970654;28;20041;-71
2022/05/26 01:23:30;;;;;;;25.27;5.00;;;;;;;;;;4986135;28;20567;-70
2022/05/26 01:25:58;;;;;;;25.17;5.88;;;;;;;;;;4980584;28;20419;-69
2022/05/26 01:28:42;;;;;;;22.77;4.78;;;;;;;;;;4996982;28;20029;-69
2022/05/26 01:31:26;;;;;;;22.55;5.10;;;;;;;;;;5001027;28;20025;-70
2022/05/26 01:34:00;;;;;;;19.98;4.40;;;;;;;;;;4985559;28;20048;-70
2022/05/26 01:36:38;;;;;;;21.10;5.50;;;;;;;;;;5000286;28;20084;-70
2022/05/26 01:39:06;;;;;;;19.15;4.55;;;;;;;;;;5003911;28;20113;-70
2022/05/26 01:41:31;;;;;;;22.65;4.68;;;;;;;;;;4979936;28;20080;-70
2022/05/26 01:43:57;;;;;;;18.73;4.50;;;;;;;;;;4999575;28;20028;-72
2022/05/26 01:46:26;;;;;;;29.08;5.40;;;;;;;;;;4995964;28;20815;-72
2022/05/26 01:49:12;;;;;;;22.70;5.95;;;;;;;;;;5002149;28;20026;-71
2022/05/26 01:51:51;;;;;;;15.00;3.83;;;;;;;;;;4981497;28;20062;-71
2022/05/26 01:54:19;;;;;;;19.73;4.63;;;;;;;;;;4984796;28;20045;-70
2022/05/26 01:56:57;;;;;;;16.67;3.60;;;;;;;;;;4979676;28;20030;-70
2022/05/26 01:59:24;;;;;;;21.40;4.25;;;;;;;;;;4998944;28;20104;-70
2022/05/26 02:02:01;;;;;;;16.25;4.03;;;;;;;;;;4981634;28;20018;-71
2022/05/26 02:04:28;;;;;;;14.82;3.38;;;;;;;;;;5001396;28;20022;-71
2022/05/26 02:06:59;;;;;;;20.58;4.22;;;;;;;;;;5000899;28;20168;-69
2022/05/26 02:09:28;;;;;;;19.83;4.65;;;;;;;;;;5002124;28;20066;-70
2022/05/26 02:12:00;;;;;;;18.02;4.55;;;;;;;;;;4998053;28;20025;-70
2022/05/26 02:14:40;;;;;;;16.90;5.00;;;;;;;;;;4980099;28;20025;-69
2022/05/26 02:17:18;;;;;;;22.23;5.13;;;;;;;;;;4983166;28;20022;-70
2022/05/26 02:19:48;;;;;;;17.50;4.25;;;;;;;;;;4998734;28;20312;-70
2022/05/26 02:22:13;;;;;;;21.50;4.88;;;;;;;;;;5004380;28;20041;-70
2022/05/26 02:25:07;;;;;;;19.40;4.90;;;;;;;;;;5002826;28;20022;-69
2022/05/26 02:27:34;;;;;;;15.73;4.47;;;;;;;;;;4985226;28;20060;-69
2022/05/26 02:30:01;;;;;;;16.70;4.88;;;;;;;;;;4967824;28;20135;-70
2022/05/26 02:32:37;;;;;;;17.52;4.95;;;;;;;;;;4986322;28;20076;-70
2022/05/26 02:35:07;;;;;;;15.05;4.10;;;;;;;;;;5004028;28;20472;-70
2022/05/26 02:37:33;;;;;;;14.15;4.13;;;;;;;;;;5003852;28;20026;-70
2022/05/26 02:39:59;;;;;;;17.10;4.50;;;;;;;;;;4984577;28;20076;-69
2022/05/26 02:42:25;;;;;;;13.48;4.43;;;;;;;;;;4987697;28;20054;-70
2022/05/26 02:44:52;;;;;;;16.52;3.97;;;;;;;;;;4981511;28;20025;-71
2022/05/26 02:47:33;;;;;;;16.67;3.90;;;;;;;;;;4986861;28;20359;-71
2022/05/26 02:50:17;;;;;;;11.88;4.00;;;;;;;;;;5002577;28;20121;-70
2022/05/26 02:53:01;;;;;;;16.23;3.92;;;;;;;;;;5003551;28;20076;-70
2022/05/26 02:55:32;;;;;;;16.00;4.38;;;;;;;;;;5000913;28;20049;-69
2022/05/26 02:57:58;;;;;;;14.13;3.90;;;;;;;;;;5004574;28;20034;-70
2022/05/26 03:00:27;;;;;;;17.15;3.75;;;;;;;;;;4983924;28;20057;-70
2022/05/26 03:02:55;;;;;;;17.77;3.92;;;;;;;;;;4987113;28;20034;-70
2022/05/26 03:05:43;;;;;;;13.75;3.75;;;;;;;;;;4985147;28;20076;-70
2022/05/26 03:08:11;;;;;;;9.55;3.13;;;;;;;;;;4986703;28;20041;-70
2022/05/26 03:10:37;;;;;;;11.45;3.13;;;;;;;;;;4980535;28;20404;-69
2022/05/26 03:13:03;;;;;;;11.32;3.33;;;;;;;;;;4986877;28;20077;-70
2022/05/26 03:15:29;;;;;;;13.00;4.00;;;;;;;;;;5000269;28;20494;-70
2022/05/26 03:17:55;;;;;;;18.38;4.25;;;;;;;;;;4986073;28;20030;-70
2022/05/26 03:20:21;;;;;;;12.45;4.18;;;;;;;;;;5003718;28;20033;-70
2022/05/26 03:22:46;;;;;;;13.73;3.80;;;;;;;;;;5003391;28;20370;-71
2022/05/26 03:25:11;;;;;;;10.85;3.15;;;;;;;;;;4981995;28;20128;-71
2022/05/26 03:27:37;;;;;;;15.10;3.30;;;;;;;;;;4984646;28;20018;-70
2022/05/26 03:30:03;;;;;;;15.77;3.35;;;;;;;;;;4968424;28;20505;-70
2022/05/26 03:32:29;;;;;;;13.95;3.88;;;;;;;;;;5002478;28;20096;-70
2022/05/26 03:43:07;;;;;;;14.63;4.03;;;;;;;;;;5004132;28;20396;-71
2022/05/26 03:45:34;;;;;;;19.73;3.90;;;;;;;;;;4998759;28;20084;-70
2022/05/26 03:48:00;;;;;;;16.85;3.72;;;;;;;;;;5004585;28;20018;-69
2022/05/26 03:50:25;;;;;;;15.38;3.75;;;;;;;;;;5001791;28;20026;-70
2022/05/26 03:52:51;;;;;;;10.98;3.50;;;;;;;;;;4983356;28;20131;-70
2022/05/26 03:55:17;;;;;;;14.00;3.35;;;;;;;;;;4982321;28;20022;-70
2022/05/26 03:57:43;;;;;;;16.63;4.13;;;;;;;;;;4983924;28;20032;-70
2022/05/26 04:00:09;;;;;;;13.55;3.63;;;;;;;;;;5000991;28;20029;-70
2022/05/26 04:02:35;;;;;;;12.48;3.22;;;;;;;;;;5002869;28;20152;-70
2022/05/26 04:05:00;;;;;;;10.45;3.38;;;;;;;;;;4969852;28;20049;-70
2022/05/26 04:07:26;;;;;;;15.35;3.58;;;;;;;;;;4986847;28;20056;-71
2022/05/26 04:09:52;;;;;;;12.32;3.63;;;;;;;;;;4967065;28;20752;-70
2022/05/26 04:12:18;;;;;;;10.77;3.42;;;;;;;;;;4987011;28;20104;-71
2022/05/26 04:14:43;;;;;;;13.43;3.20;;;;;;;;;;4984969;28;20109;-71
2022/05/26 04:17:08;;;;;;;12.30;3.42;;;;;;;;;;4969134;28;20040;-70
2022/05/26 04:19:38;;;;;;;11.50;3.17;;;;;;;;;;5004903;28;20038;-69
2022/05/26 04:22:16;;;;;;;15.57;3.42;;;;;;;;;;4985190;28;20022;-69
2022/05/26 04:24:41;;;;;;;16.00;3.80;;;;;;;;;;4969320;28;20122;-70
2022/05/26 04:27:07;;;;;;;11.43;3.33;;;;;;;;;;4968730;28;20022;-70
2022/05/26 04:29:34;;;;;;;12.45;3.92;;;;;;;;;;5004436;28;20037;-69
2022/05/26 04:31:59;;;;;;;11.75;3.75;;;;;;;;;;4982379;28;20022;-70
2022/05/26 04:34:25;;;;;;;14.48;3.50;;;;;;;;;;5002097;28;20014;-70
2022/05/26 04:36:50;;;;;;;13.70;3.20;;;;;;;;;;4999570;28;20049;-70
2022/05/26 04:39:18;;;;;;;13.63;4.20;;;;;;;;;;5004491;28;20021;-70
2022/05/26 04:41:44;;;;;;;11.40;3.17;;;;;;;;;;4997404;28;20578;-69
2022/05/26 04:44:15;;;;;;;17.70;4.30;;;;;;;;;;4984263;28;20022;-70
2022/05/26 04:46:40;;;;;;;16.08;3.53;;;;;;;;;;4997165;28;20025;-69
2022/05/26 04:49:06;;;;;;;13.55;3.40;;;;;;;;;;4984867;28;20033;-70
2022/05/26 04:51:34;;;;;;;13.35;3.38;;;;;;;;;;5003167;28;20431;-69
2022/05/26 04:53:59;;;;;;;12.98;3.95;;;;;;;;;;4984127;28;20132;-70
2022/05/26 04:56:24;;;;;;;17.10;4.15;;;;;;;;;;4966217;28;20440;-70
2022/05/26 04:58:53;;;;;;;15.15;3.97;;;;;;;;;;4981834;28;20025;-70
2022/05/26 05:01:19;;;;;;;14.52;4.15;;;;;;;;;;4982617;28;20026;-71
2022/05/26 05:03:44;;;;;;;10.65;3.88;;;;;;;;;;4999726;28;20061;-71
2022/05/26 05:06:09;;;;;;;10.70;3.50;;;;;;;;;;4982431;28;20029;-70
2022/05/26 05:08:36;;;;;;;14.85;3.72;;;;;;;;;;4968241;28;20451;-70
2022/05/26 05:11:02;;;;;;;13.48;3.58;;;;;;;;;;4981380;28;20018;-70
2022/05/26 05:13:27;;;;;;;17.33;4.32;;;;;;;;;;5000927;28;20037;-69
2022/05/26 05:16:00;;;;;;;15.90;3.80;;;;;;;;;;4979401;28;20472;-70
2022/05/26 05:18:25;;;;;;;16.45;3.97;;;;;;;;;;4985131;28;20026;-69
2022/05/26 05:20:51;;;;;;;12.35;3.60;;;;;;;;;;4998235;28;20033;-70
2022/05/26 05:23:16;;;;;;;13.15;3.30;;;;;;;;;;5001712;28;20590;-69
2022/05/26 05:25:43;;;;;;;12.30;3.80;;;;;;;;;;4979602;28;20057;-69
2022/05/26 05:28:23;;;;;;;16.75;3.97;;;;;;;;;;5000611;28;20096;-70
2022/05/26 05:30:52;;;;;;;12.85;3.45;;;;;;;;;;4997864;28;20018;-69
2022/05/26 05:33:21;;;;;;;12.32;3.50;;;;;;;;;;5002306;28;20107;-70
2022/05/26 05:35:48;;;;;;;16.83;4.28;;;;;;;;;;4998822;28;20037;-70
2022/05/26 05:38:14;;;;;;;15.50;4.15;;;;;;;;;;4984963;28;20075;-70
2022/05/26 05:40:40;;;;;;;14.00;3.55;;;;;;;;;;5000719;28;20063;-71
2022/05/26 05:43:05;;;;;;;11.85;3.80;;;;;;;;;;4982805;28;20103;-70
2022/05/26 05:45:31;;;;;;;14.23;3.75;;;;;;;;;;5002113;28;20042;-69
2022/05/26 05:47:56;;;;;;;22.38;3.83;;;;;;;;;;4963924;28;20018;-69
2022/05/26 05:50:22;;;;;;;12.07;3.50;;;;;;;;;;4967301;28;20618;-69
2022/05/26 05:52:56;;;;;;;10.45;3.50;;;;;;;;;;4981398;28;20760;-71
2022/05/26 05:55:22;;;;;;;14.75;4.22;;;;;;;;;;4983022;28;20029;-70
2022/05/26 05:57:48;;;;;;;16.55;4.05;;;;;;;;;;4967046;28;20064;-71
2022/05/26 06:00:13;;;;;;;13.68;3.78;;;;;;;;;;4987159;28;20061;-69
2022/05/26 06:02:42;;;;;;;12.45;3.65;;;;;;;;;;4971707;28;20492;-70
2022/05/26 06:05:07;;;;;;;13.95;4.43;;;;;;;;;;4972009;28;20324;-69
2022/05/26 06:07:33;;;;;;;13.05;3.63;;;;;;;;;;4985566;28;20113;-70
2022/05/26 06:09:58;;;;;;;18.67;3.70;;;;;;;;;;4984358;28;20025;-69
2022/05/26 06:12:24;;;;;;;13.45;3.47;;;;;;;;;;5005901;28;20022;-70
2022/05/26 06:14:49;;;;;;;13.38;3.92;;;;;;;;;;4965001;28;20376;-69
2022/05/26 06:17:14;;;;;;;12.88;3.65;;;;;;;;;;4988829;28;20026;-70
2022/05/26 06:19:41;;;;;;;15.70;3.95;;;;;;;;;;5003888;28;20516;-69
2022/05/26 06:22:10;;;;;;;11.80;3.65;;;;;;;;;;4981710;28;20111;-70
2022/05/26 06:24:37;;;;;;;14.82;3.72;;;;;;;;;;4971867;28;20032;-70
2022/05/26 06:29:49;;;;;;;15.38;4.38;;;;;;;;;;4981357;28;20525;-70
2022/05/26 06:29:51;;;;;;;15.98;3.55;;;;;;;;;;4984351;28;20022;-70
2022/05/26 06:37:49;;;;;;;10.23;2.92;;;;;;;;;;5003805;28;20618;-69
2022/05/26 06:40:14;;;;;;;14.43;3.47;;;;;;;;;;4968239;28;20439;-69
2022/05/26 06:42:39;;;;;;;15.15;3.60;;;;;;;;;;5001608;28;20073;-70
2022/05/26 06:45:05;;;;;;;13.88;3.85;;;;;;;;;;4984862;28;20032;-68
2022/05/26 06:47:31;;;;;;;9.52;3.40;;;;;;;;;;5002885;28;20022;-70
2022/05/26 06:49:57;;;;;;;12.70;3.78;;;;;;;;;;4968135;28;20034;-69
2022/05/26 06:52:23;;;;;;;14.30;3.80;;;;;;;;;;4986616;28;20022;-70
2022/05/26 06:54:52;;;;;;;8.90;3.45;;;;;;;;;;5005032;28;20496;-69
2022/05/26 06:57:17;;;;;;;10.88;3.35;;;;;;;;;;4983876;28;20036;-70
2022/05/26 06:59:43;;;;;;;12.68;3.55;;;;;;;;;;5002361;28;20022;-70
2022/05/26 07:02:09;;;;;;;10.70;3.15;;;;;;;;;;4984210;28;20025;-69
2022/05/26 07:04:35;;;;;;;9.65;3.10;;;;;;;;;;5006195;28;20116;-69
2022/05/26 07:07:01;;;;;;;11.32;3.60;;;;;;;;;;4984502;28;20563;-69
2022/05/26 07:09:27;;;;;;;12.93;3.30;;;;;;;;;;4989103;28;20807;-69
2022/05/26 07:11:52;;;;;;;20.50;3.95;;;;;;;;;;5000686;28;20025;-69
2022/05/26 07:14:19;;;;;;;12.18;3.35;;;;;;;;;;5003927;28;20102;-70
2022/05/26 07:16:45;;;;;;;8.55;3.15;;;;;;;;;;5003949;28;20104;-70
2022/05/26 07:19:14;;;;;;;14.55;3.97;;;;;;;;;;4985615;28;20022;-70
2022/05/26 07:21:40;;;;;;;12.20;3.45;;;;;;;;;;5004581;28;20030;-70
2022/05/26 07:24:05;;;;;;;12.77;3.10;;;;;;;;;;5002774;28;20022;-69
2022/05/26 07:26:32;;;;;;;11.40;3.85;;;;;;;;;;4983215;28;20030;-68
2022/05/26 07:28:57;;;;;;;13.90;3.83;;;;;;;;;;4967003;28;20166;-70
2022/05/26 07:31:23;;;;;;;14.15;3.40;;;;;;;;;;5001377;28;20097;-69
2022/05/26 07:33:49;;;;;;;13.00;3.35;;;;;;;;;;5002615;28;20043;-70
2022/05/26 07:41:49;;;;;;;14.43;3.80;;;;;;;;;;5002847;28;20483;-69
2022/05/26 07:44:16;;;;;;;14.13;3.63;;;;;;;;;;4983576;28;20026;-69
2022/05/26 07:46:41;;;;;;;14.77;3.50;;;;;;;;;;4983309;28;20111;-69
2022/05/26 07:49:08;;;;;;;13.45;3.55;;;;;;;;;;5001788;28;20484;-68
2022/05/26 07:51:33;;;;;;;12.35;3.35;;;;;;;;;;4984750;28;20030;-69
2022/05/26 07:54:00;;;;;;;13.65;3.72;;;;;;;;;;5003617;28;20018;-70
2022/05/26 07:56:31;;;;;;;12.10;3.60;;;;;;;;;;4984699;28;20044;-71
2022/05/26 07:58:56;;;;;;;8.30;3.10;;;;;;;;;;5001001;28;20029;-69
2022/05/26 08:01:22;;;;;;;14.35;3.70;;;;;;;;;;5001509;28;20432;-70
2022/05/26 08:03:48;;;;;;;12.07;3.10;;;;;;;;;;4968838;28;20030;-70
2022/05/26 08:06:14;;;;;;;12.02;3.40;;;;;;;;;;5002982;28;20458;-70
2022/05/26 08:08:39;;;;;;;8.35;3.13;;;;;;;;;;5002951;28;20024;-69
2022/05/26 08:11:04;;;;;;;7.97;3.13;;;;;;;;;;4983740;28;20022;-70
2022/05/26 08:13:30;;;;;;;12.93;3.05;;;;;;;;;;5001923;28;20022;-70
2022/05/26 08:15:55;;;;;;;9.77;3.10;;;;;;;;;;4982150;28;20108;-68
2022/05/26 08:18:21;;;;;;;9.32;3.20;;;;;;;;;;4967155;28;20025;-69
2022/05/26 08:20:46;;;;;;;10.88;2.80;;;;;;;;;;4968925;28;20030;-69
2022/05/26 08:23:12;;;;;;;12.90;3.10;;;;;;;;;;4999911;28;20246;-70
2022/05/26 08:25:38;;;;;;;10.68;2.92;;;;;;;;;;4970295;28;20136;-69
2022/05/26 08:28:03;;;;;;;12.25;2.72;;;;;;;;;;4996008;28;20121;-68
2022/05/26 08:30:29;;;;;;;14.60;3.25;;;;;;;;;;5004599;28;20014;-69
2022/05/26 08:32:55;;;;;;;11.63;3.00;;;;;;;;;;4983253;28;20464;-68
2022/05/26 08:35:21;;;;;;;14.30;3.28;;;;;;;;;;4985004;28;20025;-69
2022/05/26 08:37:46;;;;;;;9.45;2.78;;;;;;;;;;5003179;28;20053;-70
2022/05/26 08:40:22;;;;;;;10.95;3.35;;;;;;;;;;4981657;28;20381;-70
2022/05/26 08:42:47;;;;;;;10.82;3.15;;;;;;;;;;4999804;28;20041;-70
2022/05/26 08:45:13;;;;;;;11.48;3.28;;;;;;;;;;5000182;28;20301;-68
2022/05/26 08:47:45;;;;;;;12.40;3.40;;;;;;;;;;4966059;28;20116;-69
2022/05/26 08:50:14;;;;;;;12.35;3.25;;;;;;;;;;5003109;28;20103;-70
2022/05/26 08:52:56;;;;;;;11.82;3.22;;;;;;;;;;5003890;28;20503;-68
2022/05/26 08:55:24;;;;;;;11.27;3.40;;;;;;;;;;4981871;28;20072;-69
2022/05/26 08:58:08;;;;;;;14.20;4.22;;;;;;;;;;4980920;28;20072;-69
2022/05/26 09:00:35;;;;;;;12.18;3.33;;;;;;;;;;5004494;28;20471;-70
2022/05/26 09:03:01;;;;;;;17.15;4.10;;;;;;;;;;4999499;28;20026;-69
2022/05/26 09:05:36;;;;;;;14.55;4.07;;;;;;;;;;5003004;28;20025;-70
2022/05/26 09:13:38;;;;;;;16.95;4.13;;;;;;;;;;5001728;28;20036;-69
2022/05/26 09:16:06;;;;;;;12.57;4.03;;;;;;;;;;5001713;28;20025;-67
2022/05/26 09:18:31;;;;;;;14.98;3.88;;;;;;;;;;5002417;28;20066;-70
2022/05/26 09:21:10;;;;;;;15.73;4.28;;;;;;;;;;4985385;28;20464;-67
2022/05/26 09:23:35;;;;;;;14.85;3.72;;;;;;;;;;5003382;28;20040;-68
2022/05/26 09:26:01;;;;;;;13.57;3.70;;;;;;;;;;4963874;28;20412;-67
2022/05/26 09:28:46;;;;;;;12.25;3.83;;;;;;;;;;4980799;28;20885;-68
2022/05/26 09:31:23;;;;;;;14.38;3.78;;;;;;;;;;4998283;28;20018;-70
2022/05/26 09:34:01;;;;;;;13.32;3.33;;;;;;;;;;4984389;28;20440;-69
2022/05/26 09:36:28;;;;;;;10.25;3.50;;;;;;;;;;4982894;28;20128;-70
2022/05/26 09:38:54;;;;;;;9.80;3.38;;;;;;;;;;4997777;28;20029;-69
2022/05/26 09:41:19;;;;;;;14.45;3.53;;;;;;;;;;4978042;28;20598;-69
2022/05/26 09:43:55;;;;;;;14.60;3.47;;;;;;;;;;4982009;28;20065;-69
2022/05/26 09:46:22;;;;;;;14.48;4.07;;;;;;;;;;4982748;28;20326;-71
2022/05/26 09:48:51;;;;;;;9.65;3.97;;;;;;;;;;5002786;28;20014;-70
2022/05/26 09:51:22;;;;;;;12.68;3.63;;;;;;;;;;5001133;28;20053;-70
2022/05/26 09:53:51;;;;;;;14.90;3.80;;;;;;;;;;4984737;28;20013;-70
2022/05/26 09:56:31;;;;;;;15.98;4.25;;;;;;;;;;4997170;28;20045;-69
2022/05/26 09:58:57;;;;;;;14.73;3.78;;;;;;;;;;4981363;28;20029;-70
2022/05/26 10:01:23;;;;;;;10.77;3.50;;;;;;;;;;4997791;28;20280;-70
2022/05/26 10:03:55;;;;;;;16.63;4.13;;;;;;;;;;4980957;28;20125;-69
2022/05/26 10:06:28;;;;;;;12.57;4.10;;;;;;;;;;4997578;28;20188;-69
2022/05/26 10:08:53;;;;;;;;;;;;;;;;;;4982699;28;20108;-70
2022/05/26 10:11:25;;;;;;;12.60;3.80;;;;;;;;;;4978414;28;20021;-70
2022/05/26 10:14:16;;;;;;;12.15;3.60;;;;;;;;;;4998131;28;20045;-69
2022/05/26 10:16:54;;;;;;;12.60;3.95;;;;;;;;;;4958662;28;21154;-71
2022/05/26 10:19:34;;;;;;;15.23;3.75;;;;;;;;;;4996990;28;20476;-69
2022/05/26 10:22:08;;;;;;;12.77;3.63;;;;;;;;;;5003806;28;20022;-70
2022/05/26 10:24:52;;;;;;;11.95;4.18;;;;;;;;;;4980766;28;20036;-69
2022/05/26 10:27:27;;;;;;;14.02;3.80;;;;;;;;;;4979843;28;20022;-69
2022/05/26 10:30:02;;;;;;;11.85;4.57;;;;;;;;;;4980959;28;20046;-69
2022/05/26 10:32:46;;;;;;;11.55;3.83;;;;;;;;;;4979352;28;20229;-69
2022/05/26 10:35:20;;;;;;;14.27;3.88;;;;;;;;;;4998549;28;20052;-68
2022/05/26 10:37:54;;;;;;;11.63;3.65;;;;;;;;;;4982335;28;20022;-68
2022/05/26 10:40:45;;;;;;;11.60;4.03;;;;;;;;;;4976030;28;20030;-69
2022/05/26 10:43:31;;;;;;;13.02;3.53;;;;;;;;;;4980383;28;20066;-69
2022/05/26 10:45:58;;;;;;;11.80;3.38;;;;;;;;;;4986496;28;20121;-68
2022/05/26 10:48:30;;;;;;;12.60;3.65;;;;;;;;;;5000642;28;20022;-68
2022/05/26 10:51:01;;;;;;;12.95;3.40;;;;;;;;;;4986739;28;20084;-68
2022/05/26 10:53:40;;;;;;;11.38;4.10;;;;;;;;;;5002026;28;20052;-71
2022/05/26 10:56:09;;;;;;;14.75;3.67;;;;;;;;;;5002272;28;20041;-69
2022/05/26 10:58:39;;;;;;;9.57;3.22;;;;;;;;;;4982955;28;20032;-68
2022/05/26 11:01:11;;;;;;;12.73;3.47;;;;;;;;;;5003880;28;20022;-69
2022/05/26 11:03:37;;;;;;;15.02;3.47;;;;;;;;;;4981118;28;20164;-69
2022/05/26 11:06:24;;;;;;;18.20;3.80;;;;;;;;;;4986373;28;20026;-69
2022/05/26 11:08:56;;;;;;;13.50;3.35;;;;;;;;;;5003200;28;20021;-68
2022/05/26 11:11:34;;;;;;;8.40;3.10;;;;;;;;;;5000926;28;20483;-69
2022/05/26 11:17:21;;;;;;;10.65;3.30;;;;;;;;;;4983504;28;20251;-69
2022/05/26 11:17:24;;;;;;;13.88;3.45;;;;;;;;;;5002838;28;20168;-68
2022/05/26 11:20:08;;;;;;;10.82;3.55;;;;;;;;;;4996865;28;20140;-69
2022/05/26 11:22:33;;;;;;;11.52;3.05;;;;;;;;;;4983016;28;20037;-69
2022/05/26 11:24:59;;;;;;;11.45;3.28;;;;;;;;;;4982089;28;20591;-69
2022/05/26 11:27:27;;;;;;;14.23;2.60;;;;;;;;;;5003297;28;20434;-69
2022/05/26 11:29:56;;;;;;;12.20;2.88;;;;;;;;;;4982432;28;20028;-69
2022/05/26 11:38:08;;;;;;;15.27;2.70;;;;;;;;;;5001284;28;20040;-69
2022/05/26 11:40:36;;;;;;;12.32;2.78;;;;;;;;;;4982103;28;20084;-70
2022/05/26 11:43:03;;;;;;;12.75;2.53;;;;;;;;;;4983990;28;20120;-71
2022/05/26 11:45:33;;;;;;;8.45;2.50;;;;;;;;;;5001530;28;20088;-71
2022/05/26 11:48:00;;;;;;;10.50;2.78;;;;;;;;;;5001691;28;20026;-68
2022/05/26 11:50:28;;;;;;;13.73;2.80;;;;;;;;;;4984732;28;20113;-69
2022/05/26 11:52:54;;;;;;;11.57;2.45;;;;;;;;;;5002777;28;20062;-68
2022/05/26 11:55:38;;;;;;;10.67;2.43;;;;;;;;;;4997396;28;20502;-69
2022/05/26 11:58:15;;;;;;;9.45;2.40;;;;;;;;;;5001862;28;20259;-69
2022/05/26 12:00:43;;;;;;;10.05;2.80;;;;;;;;;;5003141;28;20014;-68
2022/05/26 12:03:23;;;;;;;9.93;1.88;;;;;;;;;;5001437;28;20109;-69
2022/05/26 12:05:55;;;;;;;9.48;2.30;;;;;;;;;;5002497;28;20087;-69
2022/05/26 12:08:28;;;;;;;7.45;2.42;;;;;;;;;;5000392;28;20026;-69
2022/05/26 12:10:55;;;;;;;10.48;2.47;;;;;;;;;;4985309;28;20380;-69
2022/05/26 12:13:25;;;;;;;10.82;2.60;;;;;;;;;;4999012;28;20499;-69
2022/05/26 12:16:08;;;;;;;10.77;1.80;;;;;;;;;;5003763;28;20049;-69
2022/05/26 12:18:53;;;;;;;7.40;2.25;;;;;;;;;;4999033;28;20772;-69
2022/05/26 12:21:27;;;;;;;10.40;2.72;;;;;;;;;;4982643;28;20794;-69
2022/05/26 12:23:53;;;;;;;11.00;3.38;;;;;;;;;;4985966;28;20049;-70
2022/05/26 12:26:28;;;;;;;10.98;3.08;;;;;;;;;;5000864;28;20060;-69
2022/05/26 12:28:54;;;;;;;14.05;3.08;;;;;;;;;;4983343;28;20116;-69
2022/05/26 12:31:20;;;;;;;12.65;3.15;;;;;;;;;;5001818;28;20456;-69
2022/05/26 12:34:02;;;;;;;9.85;2.80;;;;;;;;;;4985643;28;20026;-70
2022/05/26 12:36:43;;;;;;;9.23;2.60;;;;;;;;;;4981773;28;20052;-69
2022/05/26 12:39:30;;;;;;;14.23;3.00;;;;;;;;;;4983088;28;20120;-68
2022/05/26 12:42:07;;;;;;;11.27;3.28;;;;;;;;;;5000511;28;20069;-68
2022/05/26 12:44:51;;;;;;;11.25;2.92;;;;;;;;;;4980115;28;20034;-68
2022/05/26 12:47:16;;;;;;;11.02;2.67;;;;;;;;;;4983572;28;20021;-69
2022/05/26 12:49:42;;;;;;;10.70;2.75;;;;;;;;;;4983146;28;20353;-70
2022/05/26 12:52:19;;;;;;;7.88;2.40;;;;;;;;;;4984226;28;20018;-69
2022/05/26 12:55:05;;;;;;;9.75;2.40;;;;;;;;;;4983347;28;20053;-69
2022/05/26 12:57:31;;;;;;;12.90;2.75;;;;;;;;;;4982937;28;20380;-68
2022/05/26 13:00:15;;;;;;;12.18;2.60;;;;;;;;;;4966302;28;20029;-69
2022/05/26 13:02:41;;;;;;;10.18;2.85;;;;;;;;;;4982423;28;20026;-69
2022/05/26 13:05:08;;;;;;;9.82;2.88;;;;;;;;;;5002053;28;20291;-71
2022/05/26 13:07:34;;;;;;;12.90;2.90;;;;;;;;;;4981007;28;20360;-69
2022/05/26 13:09:59;;;;;;;7.40;2.42;;;;;;;;;;4996167;28;20478;-68
2022/05/26 13:12:26;;;;;;;7.05;2.22;;;;;;;;;;5003188;28;20026;-70
2022/05/26 13:14:56;;;;;;;11.85;2.83;;;;;;;;;;4980790;28;20052;-71
2022/05/26 13:17:27;;;;;;;10.68;2.75;;;;;;;;;;4983751;28;20018;-69
2022/05/26 13:19:54;;;;;;;9.90;2.13;;;;;;;;;;4980743;28;20123;-70
2022/05/26 13:22:26;;;;;;;9.45;2.65;;;;;;;;;;5000944;28;20100;-69
2022/05/26 13:25:10;;;;;;;8.30;3.08;;;;;;;;;;4982256;28;20026;-69
2022/05/26 13:27:47;;;;;;;10.20;2.55;;;;;;;;;;4978176;28;20065;-67
2022/05/26 13:33:11;;;;;;;5.93;2.05;;;;;;;;;;5003721;28;20100;-70
2022/05/26 13:35:41;;;;;;;8.05;2.58;;;;;;;;;;4998033;28;20029;-70
2022/05/26 13:38:22;;;;;;;6.43;2.33;;;;;;;;;;5003076;28;20030;-68
2022/05/26 13:40:47;;;;;;;7.47;2.05;;;;;;;;;;4979271;28;20124;-70
2022/05/26 13:43:13;;;;;;;10.57;2.85;;;;;;;;;;4982838;28;20456;-70
2022/05/26 13:45:41;;;;;;;10.75;2.30;;;;;;;;;;4979085;28;20034;-71
2022/05/26 13:48:21;;;;;;;8.40;2.30;;;;;;;;;;4983334;28;20018;-70
2022/05/26 13:50:50;;;;;;;10.30;2.70;;;;;;;;;;4964648;28;20477;-69
2022/05/26 13:53:15;;;;;;;7.82;2.50;;;;;;;;;;4983672;28;20180;-70
2022/05/26 13:55:44;;;;;;;10.68;2.97;;;;;;;;;;4976922;28;20026;-70
2022/05/26 13:58:09;;;;;;;6.88;2.00;;;;;;;;;;5001863;28;20053;-70
2022/05/26 14:00:36;;;;;;;8.43;2.30;;;;;;;;;;4981118;28;20108;-69
2022/05/26 14:03:01;;;;;;;9.82;3.00;;;;;;;;;;5002501;28;20037;-69
2022/05/26 14:05:31;;;;;;;12.20;3.87;;;;;;;;;;4979254;28;20030;-69
2022/05/26 14:08:01;;;;;;;13.77;4.75;;;;;;;;;;4983449;28;20244;-68
2022/05/26 14:10:46;;;;;;;11.18;3.22;;;;;;;;;;4998779;28;20040;-70
2022/05/26 14:13:14;;;;;;;10.02;2.65;;;;;;;;;;5001944;28;20071;-71
2022/05/26 14:15:47;;;;;;;10.02;2.88;;;;;;;;;;4981407;28;20045;-70
2022/05/26 14:18:12;;;;;;;;;;;;;;;;;;5003885;28;20832;-69
2022/05/26 14:20:37;;;;;;;8.85;2.25;;;;;;;;;;5000659;28;20315;-68
2022/05/26 14:23:02;;;;;;;8.85;1.90;;;;;;;;;;5006312;28;20034;-68
2022/05/26 14:25:28;;;;;;;10.88;2.40;;;;;;;;;;4981920;28;20034;-67
2022/05/26 14:27:55;;;;;;;7.03;2.05;;;;;;;;;;4985873;28;20462;-70
2022/05/26 14:30:35;;;;;;;9.13;1.67;;;;;;;;;;5002701;28;20526;-69
2022/05/26 14:33:15;;;;;;;8.50;1.80;;;;;;;;;;5004434;28;20034;-69
2022/05/26 14:35:40;;;;;;;7.95;2.03;;;;;;;;;;4982308;28;20113;-69
2022/05/26 14:38:06;;;;;;;8.43;2.30;;;;;;;;;;5006257;28;20098;-68
2022/05/26 14:40:31;;;;;;;9.15;1.88;;;;;;;;;;4980639;28;20084;-69
2022/05/26 14:42:57;;;;;;;8.32;2.05;;;;;;;;;;4985472;28;20124;-69
2022/05/26 14:45:22;;;;;;;6.50;1.90;;;;;;;;;;4967991;28;20026;-68
2022/05/26 14:47:49;;;;;;;6.70;1.77;;;;;;;;;;5004035;28;20321;-69
2022/05/26 14:50:15;;;;;;;5.55;1.52;;;;;;;;;;5000618;28;20026;-69
2022/05/26 14:52:41;;;;;;;7.60;2.50;;;;;;;;;;5004237;28;20021;-68
2022/05/26 14:57:51;;;;;;;9.10;2.28;;;;;;;;;;4988469;28;20214;-68
2022/05/26 15:00:18;;;;;;;7.55;2.70;;;;;;;;;;5003237;28;20274;-69
2022/05/26 15:02:44;;;;;;;12.43;3.17;;;;;;;;;;5004066;28;20030;-68
2022/05/26 15:05:10;;;;;;;11.65;3.20;;;;;;;;;;4984881;28;20033;-68
2022/05/26 15:07:36;;;;;;;10.23;3.15;;;;;;;;;;4985506;28;20022;-70
2022/05/26 15:10:02;;;;;;;10.05;2.80;;;;;;;;;;5001027;28;20044;-68
2022/05/26 15:12:28;;;;;;;18.15;3.35;;;;;;;;;;5003716;28;20110;-69
2022/05/26 15:14:54;;;;;;;12.27;3.47;;;;;;;;;;4984534;28;20030;-69
2022/05/26 15:17:20;;;;;;;10.52;2.80;;;;;;;;;;5004948;28;20032;-70
2022/05/26 15:19:51;;;;;;;8.60;3.15;;;;;;;;;;4998383;28;20516;-68
2022/05/26 15:22:18;;;;;;;11.63;3.83;;;;;;;;;;4987400;28;20029;-69
2022/05/26 15:24:44;;;;;;;10.70;3.15;;;;;;;;;;5000740;28;20030;-69